Time;durP1;ratioP1;P1;durP2;ratioP2;P2;SDS_P1;SDS_P2;PMS_P1;PMS_P2;Temp;Humidity;BMP_temperature;BMP_pressure;BME280_temperature;BME280_humidity;BME280_pressure;Samples;Min_cycle;Max_cycle;Signal;HPM_P1;HPM_P2
2021/10/02 00:44:50;;;;;;;2.30;1.20;;;;;;;10.89;63.56;98876.69;5100809;27;41026;-78
2021/10/02 00:47:20;;;;;;;1.20;1.10;;;;;;;10.91;63.57;98876.63;5150155;27;43068;-79
2021/10/02 00:49:49;;;;;;;1.37;1.00;;;;;;;10.90;63.70;98881.06;5166703;27;42286;-78
2021/10/02 00:52:19;;;;;;;1.83;1.03;;;;;;;10.99;63.52;98883.16;5148545;27;40813;-78
2021/10/02 00:54:47;;;;;;;1.17;0.87;;;;;;;11.04;63.14;98885.47;5131595;27;40970;-79
2021/10/02 00:57:16;;;;;;;1.63;0.90;;;;;;;11.14;63.21;98884.78;5148611;27;42720;-80
2021/10/02 00:59:47;;;;;;;0.73;0.73;;;;;;;11.09;63.15;98862.19;5117226;27;41653;-78
2021/10/02 01:02:21;;;;;;;1.50;0.87;;;;;;;11.17;63.15;98867.84;5131363;27;40178;-79
2021/10/02 01:05:07;;;;;;;1.63;1.20;;;;;;;11.31;64.24;98869.59;5148950;27;40593;-78
2021/10/02 01:07:41;;;;;;;1.30;1.00;;;;;;;11.36;64.36;98867.50;5131040;27;42787;-78
2021/10/02 01:10:20;;;;;;;1.27;1.00;;;;;;;11.34;64.22;98854.34;5148414;27;42213;-80
2021/10/02 01:13:02;;;;;;;1.00;0.90;;;;;;;11.43;63.79;98855.53;5132247;27;40132;-80
2021/10/02 01:15:39;;;;;;;1.10;1.10;;;;;;;11.44;63.73;98849.28;5150164;27;41538;-79
2021/10/02 01:18:15;;;;;;;1.20;1.10;;;;;;;11.56;63.57;98868.84;5150785;27;43093;-77
2021/10/02 01:20:56;;;;;;;1.43;1.07;;;;;;;11.58;63.29;98862.50;5148880;27;42262;-79
2021/10/02 01:23:57;;;;;;;0.70;0.70;;;;;;;11.56;63.64;98848.47;5149264;27;39847;-80
2021/10/02 01:27:01;;;;;;;1.23;0.90;;;;;;;11.60;63.74;98855.28;5149416;27;42094;-79
2021/10/02 01:29:35;;;;;;;0.80;0.80;;;;;;;11.51;63.77;98818.75;5143433;27;42519;-79
2021/10/02 01:32:09;;;;;;;1.30;1.07;;;;;;;11.53;63.51;98832.75;5144992;27;41434;-78
2021/10/02 01:34:43;;;;;;;0.80;0.80;;;;;;;11.50;63.44;98825.00;5144805;27;38848;-78
2021/10/02 01:37:23;;;;;;;1.50;0.80;;;;;;;11.62;63.37;98845.41;5160595;27;41858;-78
2021/10/02 01:48:15;;;;;;;1.17;1.00;;;;;;;11.62;63.91;98841.94;5153075;27;42676;-79
2021/10/02 01:50:44;;;;;;;2.07;1.00;;;;;;;11.55;63.45;98845.91;5152763;27;41859;-78
2021/10/02 01:53:13;;;;;;;1.13;1.00;;;;;;;11.56;63.43;98845.81;5170055;27;42273;-81
2021/10/02 01:55:41;;;;;;;2.40;0.90;;;;;;;11.52;63.51;98858.44;5151038;27;40181;-79
2021/10/02 01:58:11;;;;;;;1.47;0.90;;;;;;;11.49;63.33;98857.81;5153104;27;42562;-79
2021/10/02 02:00:43;;;;;;;0.80;0.80;;;;;;;11.34;63.30;98843.75;5160472;27;43295;-80
2021/10/02 02:03:14;;;;;;;1.63;0.90;;;;;;;11.35;63.32;98836.66;5151358;27;41247;-79
2021/10/02 02:05:43;;;;;;;3.27;1.20;;;;;;;11.41;63.33;98841.53;5130993;27;39112;-79
2021/10/02 02:08:14;;;;;;;3.80;1.40;;;;;;;11.41;63.52;98845.03;5124081;27;40734;-79
2021/10/02 02:10:43;;;;;;;1.60;1.13;;;;;;;11.40;64.00;98838.03;5153010;27;42853;-81
2021/10/02 02:13:13;;;;;;;2.00;1.30;;;;;;;11.39;64.93;98828.38;5151325;27;41554;-79
2021/10/02 02:15:45;;;;;;;1.00;0.93;;;;;;;11.39;64.61;98838.13;5153512;27;39967;-78
2021/10/02 02:18:15;;;;;;;2.53;0.87;;;;;;;11.48;64.13;98842.84;5151503;27;41708;-78
2021/10/02 02:20:44;;;;;;;1.00;0.90;;;;;;;11.46;63.48;98839.44;5134491;27;41897;-79
2021/10/02 02:23:13;;;;;;;2.00;0.80;;;;;;;11.56;63.44;98837.88;5152221;27;43285;-78
2021/10/02 02:25:43;;;;;;;0.70;0.70;;;;;;;11.60;63.38;98842.03;5134046;27;39156;-80
2021/10/02 02:28:10;;;;;;;1.27;1.17;;;;;;;11.66;63.96;98854.88;5150565;27;42653;-81
2021/10/02 02:30:38;;;;;;;1.57;0.97;;;;;;;11.68;64.07;98837.03;5134272;27;42782;-79
2021/10/02 02:33:07;;;;;;;1.07;0.80;;;;;;;11.71;64.18;98842.16;5152499;27;43056;-80
2021/10/02 02:35:35;;;;;;;1.10;1.00;;;;;;;11.74;64.40;98830.50;5134328;27;38788;-79
2021/10/02 02:38:03;;;;;;;0.83;0.80;;;;;;;11.73;65.64;98824.34;5133880;27;40798;-79
2021/10/02 02:40:31;;;;;;;1.60;1.40;;;;;;;11.74;65.28;98828.69;5133226;27;41713;-79
2021/10/02 02:42:58;;;;;;;2.00;1.20;;;;;;;11.65;65.24;98810.72;5151798;27;43075;-79
2021/10/02 02:45:27;;;;;;;1.07;0.80;;;;;;;11.74;65.26;98820.72;5132655;27;39098;-79
2021/10/02 02:48:01;;;;;;;1.30;1.13;;;;;;;11.66;66.04;98812.41;5151384;27;42815;-77
2021/10/02 02:50:37;;;;;;;1.07;0.97;;;;;;;11.60;66.07;98804.03;5150349;27;42794;-79
2021/10/02 02:53:12;;;;;;;1.40;0.90;;;;;;;11.72;65.88;98827.94;5150721;27;42488;-79
2021/10/02 02:55:43;;;;;;;1.13;1.00;;;;;;;11.75;65.30;98833.03;5132516;27;40174;-78
2021/10/02 02:58:11;;;;;;;1.40;1.10;;;;;;;11.76;65.98;98824.13;5151182;27;41635;-79
2021/10/02 03:00:52;;;;;;;1.77;1.40;;;;;;;11.72;67.52;98827.94;5133470;27;41800;-79
2021/10/02 03:03:23;;;;;;;1.20;1.10;;;;;;;11.80;66.51;98840.72;5151401;27;42537;-80
2021/10/02 03:05:54;;;;;;;1.57;1.40;;;;;;;11.79;66.91;98820.44;5150193;27;39165;-80
2021/10/02 03:08:23;;;;;;;1.83;1.00;;;;;;;11.88;66.51;98828.59;5150764;27;42645;-79
2021/10/02 03:10:59;;;;;;;1.23;0.87;;;;;;;11.95;66.33;98838.81;5150166;27;42779;-78
2021/10/02 03:13:27;;;;;;;0.70;0.70;;;;;;;11.93;66.03;98823.00;5150709;27;42626;-80
2021/10/02 03:15:56;;;;;;;1.10;0.90;;;;;;;11.94;65.86;98815.88;5132740;27;38927;-80
2021/10/02 03:18:25;;;;;;;1.00;0.90;;;;;;;12.07;65.82;98824.72;5133510;27;40992;-80
2021/10/02 03:20:57;;;;;;;1.20;1.10;;;;;;;12.03;65.98;98810.78;5150551;27;42518;-80
2021/10/02 03:23:26;;;;;;;0.70;0.70;;;;;;;12.13;66.47;98811.00;5151013;27;42453;-80
2021/10/02 03:25:55;;;;;;;1.60;1.13;;;;;;;12.09;66.69;98809.53;5151815;27;40287;-79
2021/10/02 03:28:23;;;;;;;1.30;0.90;;;;;;;12.11;66.29;98823.56;5152433;27;43097;-78
2021/10/02 03:30:51;;;;;;;1.10;1.00;;;;;;;12.03;66.34;98809.94;5150417;27;43117;-80
2021/10/02 03:33:22;;;;;;;1.10;0.80;;;;;;;12.09;66.31;98820.16;5150610;27;43096;-80
2021/10/02 03:35:50;;;;;;;1.20;0.90;;;;;;;12.07;66.28;98816.75;5133097;27;38836;-80
2021/10/02 03:38:19;;;;;;;1.30;1.20;;;;;;;11.90;66.08;98787.84;5151127;27;41869;-78
2021/10/02 03:40:46;;;;;;;1.33;1.20;;;;;;;12.09;66.35;98814.84;5148279;27;43163;-81
2021/10/02 03:43:14;;;;;;;1.40;1.13;;;;;;;12.11;66.26;98828.84;5132114;27;42495;-78
2021/10/02 03:45:41;;;;;;;1.53;1.00;;;;;;;12.12;65.95;98820.75;5151058;27;41173;-78
2021/10/02 03:48:10;;;;;;;3.50;1.27;;;;;;;12.12;66.10;98819.91;5149712;27;40971;-79
2021/10/02 03:50:37;;;;;;;2.10;1.03;;;;;;;12.15;66.35;98819.69;5132859;27;42260;-79
2021/10/02 03:53:05;;;;;;;1.50;0.83;;;;;;;12.17;66.36;98825.75;5150559;27;42505;-78
2021/10/02 03:55:34;;;;;;;1.80;1.10;;;;;;;12.22;66.40;98821.84;5133660;27;40307;-79
2021/10/02 03:58:01;;;;;;;1.37;0.90;;;;;;;12.28;66.88;98815.25;5150225;27;40718;-81
2021/10/02 04:00:28;;;;;;;1.30;0.90;;;;;;;12.15;66.53;98783.38;5132121;27;41819;-78
2021/10/02 04:02:56;;;;;;;0.90;0.67;;;;;;;12.41;66.49;98809.91;5149267;27;42531;-79
2021/10/02 04:05:23;;;;;;;0.80;0.80;;;;;;;12.46;66.69;98813.97;5131621;27;38971;-78
2021/10/02 04:07:51;;;;;;;0.80;0.60;;;;;;;12.52;66.33;98810.00;5166834;27;41711;-80
2021/10/02 04:10:19;;;;;;;0.60;0.60;;;;;;;12.54;66.44;98806.28;5151094;27;43890;-80
2021/10/02 04:12:47;;;;;;;0.67;0.67;;;;;;;12.55;67.19;98802.66;5131754;27;42164;-79
2021/10/02 04:15:15;;;;;;;1.23;0.90;;;;;;;12.56;66.87;98815.00;5149571;27;40244;-80
2021/10/02 04:17:43;;;;;;;1.13;0.87;;;;;;;12.55;67.15;98807.97;5133272;27;40599;-79
2021/10/02 04:20:11;;;;;;;0.90;0.90;;;;;;;12.55;67.12;98809.78;5149572;27;42784;-79
2021/10/02 04:22:38;;;;;;;1.83;0.73;;;;;;;12.56;67.27;98809.69;5149356;27;42371;-78
2021/10/02 04:25:07;;;;;;;0.90;0.90;;;;;;;12.56;67.53;98811.50;5132213;27;38861;-79
2021/10/02 04:27:35;;;;;;;0.80;0.80;;;;;;;12.58;67.32;98797.16;5132322;27;40838;-78
2021/10/02 04:30:06;;;;;;;0.73;0.63;;;;;;;12.52;67.34;98802.03;5151725;27;43591;-79
2021/10/02 04:32:34;;;;;;;1.20;1.07;;;;;;;12.62;66.85;98807.53;5131843;27;41323;-78
2021/10/02 04:35:01;;;;;;;0.80;0.80;;;;;;;12.61;67.21;98811.19;5133337;27;39805;-80
2021/10/02 04:37:29;;;;;;;1.00;0.57;;;;;;;12.63;67.66;98814.53;5132297;27;40591;-78
2021/10/02 04:39:56;;;;;;;1.37;1.20;;;;;;;12.64;68.45;98811.78;5149449;27;43696;-80
2021/10/02 04:42:24;;;;;;;0.93;0.80;;;;;;;12.69;68.41;98808.81;5131631;27;41090;-80
2021/10/02 04:44:51;;;;;;;1.77;1.00;;;;;;;12.74;69.46;98806.66;5148845;27;39949;-78
2021/10/02 04:47:20;;;;;;;1.90;1.10;;;;;;;12.79;68.94;98816.00;5149926;27;41424;-79
2021/10/02 04:49:49;;;;;;;1.10;0.80;;;;;;;12.78;69.10;98798.34;5132016;27;42918;-78
2021/10/02 04:52:16;;;;;;;1.77;0.90;;;;;;;12.90;68.79;98813.41;5148591;27;42109;-80
2021/10/02 04:54:44;;;;;;;1.20;1.00;;;;;;;12.97;69.14;98813.84;5131946;27;39400;-79
2021/10/02 04:57:11;;;;;;;1.40;1.10;;;;;;;13.02;68.64;98811.66;5149648;27;41789;-79
2021/10/02 04:59:39;;;;;;;0.90;0.73;;;;;;;13.06;68.58;98812.31;5131477;27;41968;-80
2021/10/02 05:02:07;;;;;;;0.67;0.67;;;;;;;13.09;68.92;98807.63;5149522;27;42385;-81
2021/10/02 05:04:36;;;;;;;1.30;0.90;;;;;;;13.10;68.83;98801.34;5150746;27;40038;-78
2021/10/02 05:07:03;;;;;;;1.17;0.80;;;;;;;13.03;68.99;98789.44;5149401;27;42665;-79
2021/10/02 05:09:31;;;;;;;0.70;0.70;;;;;;;13.09;68.71;98796.97;5148485;27;43089;-79
2021/10/02 05:11:59;;;;;;;1.60;1.23;;;;;;;13.05;69.20;98800.81;5147260;27;41911;-78
2021/10/02 05:14:26;;;;;;;1.60;0.97;;;;;;;13.01;69.38;98809.97;5149637;27;39872;-79
2021/10/02 05:16:54;;;;;;;0.77;0.77;;;;;;;12.93;69.20;98812.34;5149831;27;41729;-77
2021/10/02 05:19:22;;;;;;;0.60;0.60;;;;;;;12.76;68.83;98799.41;5134630;27;41797;-77
2021/10/02 05:21:51;;;;;;;1.13;0.83;;;;;;;12.86;70.28;98814.59;5152606;27;43346;-78
2021/10/02 05:24:18;;;;;;;0.93;0.80;;;;;;;12.77;70.13;98809.09;5169952;27;40553;-78
2021/10/02 05:26:45;;;;;;;1.50;0.90;;;;;;;12.85;70.02;98817.38;5152599;27;40654;-80
2021/10/02 05:29:13;;;;;;;1.00;0.97;;;;;;;12.77;70.33;98803.78;5152081;27;43968;-77
2021/10/02 05:31:40;;;;;;;0.77;0.77;;;;;;;12.80;70.38;98804.41;5152486;27;42191;-78
2021/10/02 05:34:08;;;;;;;1.30;1.17;;;;;;;12.93;70.49;98815.00;5152805;27;39788;-79
2021/10/02 05:36:36;;;;;;;0.97;0.93;;;;;;;12.96;70.77;98806.81;5152059;27;42999;-79
2021/10/02 05:39:04;;;;;;;1.67;1.47;;;;;;;12.97;70.64;98808.50;5135314;27;41627;-79
2021/10/02 05:41:32;;;;;;;1.60;1.27;;;;;;;13.02;71.14;98806.34;5152418;27;41703;-78
2021/10/02 05:43:59;;;;;;;1.77;1.40;;;;;;;13.04;70.94;98809.75;5170178;27;39976;-79
2021/10/02 05:46:27;;;;;;;1.20;1.10;;;;;;;13.04;70.88;98815.06;5152080;27;42747;-79
2021/10/02 05:48:54;;;;;;;1.40;1.10;;;;;;;12.94;70.63;98796.28;5151197;27;42028;-78
2021/10/02 05:51:24;;;;;;;1.63;1.20;;;;;;;13.03;70.71;98810.72;5152876;27;42031;-79
2021/10/02 05:53:52;;;;;;;1.30;1.20;;;;;;;12.97;70.71;98797.88;5154072;27;41014;-80
2021/10/02 05:56:21;;;;;;;1.30;1.20;;;;;;;13.05;70.39;98818.56;5151684;27;41682;-78
2021/10/02 05:58:48;;;;;;;1.50;1.40;;;;;;;13.05;70.49;98827.41;5169207;27;42943;-79
2021/10/02 06:01:16;;;;;;;1.10;1.00;;;;;;;13.09;70.21;98818.25;5152127;27;42541;-78
2021/10/02 06:03:43;;;;;;;2.00;1.00;;;;;;;13.09;70.27;98814.75;5135337;27;39029;-79
2021/10/02 06:06:11;;;;;;;1.30;0.90;;;;;;;13.13;69.74;98814.38;5151458;27;41222;-79
2021/10/02 06:08:38;;;;;;;1.30;1.00;;;;;;;13.31;69.55;98838.81;5134499;27;41678;-78
2021/10/02 06:11:05;;;;;;;1.83;1.20;;;;;;;13.40;69.32;98847.91;5151621;27;42605;-79
2021/10/02 06:13:34;;;;;;;1.37;1.00;;;;;;;13.51;69.18;98853.28;5151851;27;40271;-80
2021/10/02 06:16:02;;;;;;;2.23;1.00;;;;;;;13.61;69.03;98854.28;5151107;27;40810;-79
2021/10/02 06:18:30;;;;;;;1.10;0.90;;;;;;;13.73;68.69;98840.06;5134043;27;41710;-79
2021/10/02 06:20:58;;;;;;;1.07;0.97;;;;;;;13.80;68.78;98827.16;5155752;27;41593;-78
2021/10/02 06:23:27;;;;;;;1.00;0.90;;;;;;;13.98;68.73;98831.91;5134855;27;39015;-77
2021/10/02 06:25:55;;;;;;;1.30;1.20;;;;;;;14.03;68.60;98813.78;5152817;27;41843;-79
2021/10/02 06:28:22;;;;;;;1.60;1.10;;;;;;;14.29;68.17;98842.88;5150401;27;43665;-79
2021/10/02 06:30:51;;;;;;;2.27;1.10;;;;;;;14.44;67.86;98855.03;5151659;27;43049;-79
2021/10/02 06:33:19;;;;;;;0.90;0.90;;;;;;;14.56;67.64;98856.72;5133497;27;39153;-79
2021/10/02 06:35:46;;;;;;;2.50;1.20;;;;;;;14.73;67.17;98874.03;5133509;27;42172;-79
2021/10/02 06:38:15;;;;;;;1.70;1.20;;;;;;;14.87;66.88;98859.63;5134305;27;42201;-79
2021/10/02 06:40:43;;;;;;;1.30;1.07;;;;;;;14.91;66.82;98845.06;5132380;27;42219;-78
2021/10/02 06:43:11;;;;;;;1.50;1.13;;;;;;;15.14;66.23;98857.41;5151182;27;41116;-78
2021/10/02 06:45:39;;;;;;;1.40;1.27;;;;;;;15.28;65.89;98859.81;5168344;27;42459;-79
2021/10/02 06:48:08;;;;;;;2.50;1.10;;;;;;;15.39;65.58;98859.75;5150973;27;41625;-80
2021/10/02 06:50:36;;;;;;;1.27;1.00;;;;;;;15.39;65.44;98849.09;5150749;27;42382;-77
2021/10/02 06:53:05;;;;;;;1.90;1.50;;;;;;;15.51;64.95;98849.91;5134300;27;38998;-79
2021/10/02 06:55:32;;;;;;;1.20;1.10;;;;;;;15.55;64.52;98855.88;5148707;27;41922;-78
2021/10/02 06:58:00;;;;;;;1.93;1.60;;;;;;;15.57;64.51;98860.13;5133443;27;41637;-80
2021/10/02 07:00:27;;;;;;;1.80;1.20;;;;;;;15.59;64.34;98858.13;5150329;27;43229;-82
2021/10/02 07:02:58;;;;;;;1.57;1.10;;;;;;;15.49;64.35;98834.97;5150429;27;41843;-80
2021/10/02 07:05:27;;;;;;;1.43;1.30;;;;;;;15.67;64.18;98860.19;5167903;27;41952;-79
2021/10/02 07:07:55;;;;;;;1.23;1.13;;;;;;;15.59;64.34;98830.59;5128225;27;43432;-80
2021/10/02 07:10:23;;;;;;;1.20;1.10;;;;;;;15.76;63.93;98849.59;5128540;27;41668;-81
2021/10/02 07:12:52;;;;;;;2.00;1.23;;;;;;;15.90;63.53;98850.25;5112032;27;39960;-81
2021/10/02 07:15:20;;;;;;;1.87;1.47;;;;;;;15.89;63.46;98830.69;5110866;27;42077;-80
2021/10/02 07:17:48;;;;;;;0.80;0.80;;;;;;;16.08;63.03;98849.53;5129221;27;41804;-81
2021/10/02 07:20:16;;;;;;;1.60;1.17;;;;;;;16.28;62.89;98857.69;5125995;27;43080;-79
2021/10/02 07:22:45;;;;;;;2.03;1.60;;;;;;;16.40;62.04;98848.59;5128764;27;39638;-80
2021/10/02 07:25:16;;;;;;;1.17;1.10;;;;;;;16.81;60.69;98869.91;5093436;27;40643;-79
2021/10/02 07:27:44;;;;;;;3.40;1.07;;;;;;;17.30;59.81;98857.56;5111417;27;42798;-78
2021/10/02 07:30:13;;;;;;;1.20;1.10;;;;;;;17.53;59.48;98855.47;5111074;27;42151;-78
2021/10/02 07:32:41;;;;;;;2.03;1.20;;;;;;;17.65;59.15;98842.81;5144220;27;39721;-79
2021/10/02 07:35:11;;;;;;;2.77;1.20;;;;;;;17.85;58.22;98874.81;5128368;27;41211;-78
2021/10/02 07:37:39;;;;;;;2.13;1.20;;;;;;;17.91;57.82;98870.75;5094881;27;41749;-78
2021/10/02 07:40:12;;;;;;;1.27;1.17;;;;;;;17.96;57.69;98871.13;5111051;27;41391;-79
2021/10/02 07:42:40;;;;;;;1.23;1.07;;;;;;;18.09;57.73;98885.09;5128696;27;40151;-79
2021/10/02 07:45:09;;;;;;;1.13;1.03;;;;;;;18.10;57.17;98886.78;5131670;27;40947;-80
2021/10/02 07:47:41;;;;;;;1.20;1.10;;;;;;;18.19;57.00;98885.06;5180991;27;43540;-79
2021/10/02 07:50:10;;;;;;;2.50;1.17;;;;;;;18.23;56.98;98879.28;5146365;27;41192;-80
2021/10/02 07:52:39;;;;;;;1.17;1.00;;;;;;;18.48;56.33;98885.88;5150793;27;40800;-80
2021/10/02 07:55:10;;;;;;;1.63;1.20;;;;;;;18.74;55.51;98891.50;5149701;27;41773;-81
2021/10/02 07:57:39;;;;;;;1.23;1.13;;;;;;;19.18;54.10;98889.03;5133396;27;41991;-77
2021/10/02 08:00:09;;;;;;;3.17;1.13;;;;;;;19.66;52.60;98900.34;5131836;27;42577;-80
2021/10/02 08:02:43;;;;;;;1.27;1.03;;;;;;;20.08;51.55;98911.34;5146190;27;39006;-78
2021/10/02 08:05:11;;;;;;;1.47;1.23;;;;;;;19.96;51.12;98909.88;5167123;27;42386;-79
2021/10/02 08:07:42;;;;;;;1.00;0.90;;;;;;;19.90;51.85;98907.84;5150170;27;43818;-79
2021/10/02 08:10:14;;;;;;;0.70;0.70;;;;;;;20.15;51.11;98905.38;5148286;27;43487;-78
2021/10/02 08:12:41;;;;;;;1.57;1.20;;;;;;;22.42;46.18;98928.75;5150003;27;40287;-78
2021/10/02 08:15:10;;;;;;;1.20;1.10;;;;;;;24.13;43.62;98939.84;5147490;27;41902;-76
2021/10/02 08:17:40;;;;;;;0.83;0.83;;;;;;;24.88;42.83;98936.34;5148881;27;43044;-78
2021/10/02 08:20:11;;;;;;;1.00;1.00;;;;;;;24.72;42.36;98934.66;5148108;27;42473;-77
2021/10/02 08:22:40;;;;;;;1.10;0.73;;;;;;;24.80;42.34;98933.72;5166350;27;40079;-79
2021/10/02 08:25:09;;;;;;;1.20;1.10;;;;;;;25.41;40.17;98949.66;5148685;27;42191;-79
2021/10/02 08:27:39;;;;;;;1.10;1.00;;;;;;;26.03;39.25;98946.50;5149981;27;42625;-79
2021/10/02 08:30:09;;;;;;;1.90;1.17;;;;;;;26.88;37.14;98945.63;5150232;27;42385;-79
2021/10/02 08:32:37;;;;;;;0.87;0.87;;;;;;;27.78;35.22;98956.44;5151301;27;40613;-80
2021/10/02 08:35:06;;;;;;;0.90;0.90;;;;;;;28.22;34.76;98955.97;5147199;27;41697;-80
2021/10/02 08:37:34;;;;;;;9.57;4.83;;;;;;;28.61;34.12;98957.06;5149038;27;42623;-79
2021/10/02 08:40:04;;;;;;;6.30;4.07;;;;;;;29.22;33.68;98956.84;5146404;27;42536;-78
2021/10/02 08:42:33;;;;;;;2.27;1.27;;;;;;;30.19;31.66;98962.19;5144726;27;41194;-82
2021/10/02 08:45:02;;;;;;;1.00;0.80;;;;;;;30.56;30.95;98960.50;5148230;27;40922;-77
2021/10/02 08:47:34;;;;;;;1.20;1.10;;;;;;;30.41;30.66;98953.66;5147377;27;41695;-80
2021/10/02 08:50:02;;;;;;;0.90;0.90;;;;;;;30.47;30.44;98955.50;5149763;27;42162;-77
2021/10/02 08:52:31;;;;;;;1.80;0.93;;;;;;;31.14;28.81;98953.94;5151261;27;39894;-77
2021/10/02 08:55:00;;;;;;;1.70;1.10;;;;;;;32.65;27.72;98962.09;5152249;27;42700;-78
2021/10/02 08:57:28;;;;;;;1.23;1.13;;;;;;;33.76;25.60;98964.78;5151034;27;43808;-79
2021/10/02 08:59:57;;;;;;;1.30;1.20;;;;;;;32.87;26.08;98951.47;5153443;27;42284;-79
2021/10/02 09:02:27;;;;;;;1.13;1.00;;;;;;;31.66;27.27;98941.56;5153630;27;39723;-78
2021/10/02 09:04:56;;;;;;;1.20;1.10;;;;;;;30.88;28.45;98944.88;5150864;27;41825;-79
2021/10/02 09:07:24;;;;;;;1.20;1.10;;;;;;;29.92;30.09;98928.69;5152100;27;42270;-76
2021/10/02 09:09:54;;;;;;;0.80;0.80;;;;;;;29.20;30.68;98918.84;5169156;27;43041;-78
2021/10/02 09:12:23;;;;;;;1.80;1.00;;;;;;;28.44;32.19;98913.03;5153808;27;40644;-78
2021/10/02 09:14:52;;;;;;;1.07;1.00;;;;;;;27.84;33.61;98900.34;5134448;27;40806;-79
2021/10/02 09:17:20;;;;;;;0.87;0.87;;;;;;;27.37;33.30;98899.31;5165451;27;43868;-79
2021/10/02 09:19:50;;;;;;;1.47;1.23;;;;;;;26.91;34.00;98892.75;5151353;27;40975;-78
2021/10/02 09:22:21;;;;;;;1.90;1.30;;;;;;;26.45;35.21;98883.22;5150601;27;40977;-81
2021/10/02 09:24:50;;;;;;;0.73;0.70;;;;;;;25.98;35.95;98875.66;5147744;27;40609;-78
2021/10/02 09:27:20;;;;;;;0.80;0.80;;;;;;;25.63;36.39;98865.69;5149447;27;42857;-77
2021/10/02 09:29:51;;;;;;;2.97;1.73;;;;;;;25.29;36.84;98859.00;5148266;27;42686;-76
2021/10/02 09:32:21;;;;;;;2.60;1.20;;;;;;;24.98;37.25;98866.50;5147066;27;40188;-78
2021/10/02 09:34:52;;;;;;;0.77;0.70;;;;;;;24.68;37.82;98838.53;5147717;27;40624;-78
2021/10/02 09:37:26;;;;;;;0.67;0.67;;;;;;;24.64;38.21;98859.72;5149249;27;42761;-78
2021/10/02 09:39:59;;;;;;;1.30;1.00;;;;;;;24.38;38.50;98832.25;5148038;27;42411;-77
2021/10/02 09:42:33;;;;;;;1.07;0.70;;;;;;;24.21;39.24;98825.28;5146950;27;39608;-79
2021/10/02 09:45:04;;;;;;;2.10;1.00;;;;;;;24.26;39.06;98849.94;5148123;27;41062;-79
2021/10/02 09:47:32;;;;;;;0.80;0.80;;;;;;;24.12;38.95;98853.41;5149789;27;42549;-79
2021/10/02 09:50:08;;;;;;;1.33;1.10;;;;;;;24.00;39.23;98847.59;5131780;27;41228;-78
2021/10/02 09:52:38;;;;;;;1.10;1.00;;;;;;;23.98;40.07;98839.66;5127021;27;39264;-78
2021/10/02 09:55:19;;;;;;;1.13;1.00;;;;;;;24.10;39.58;98844.66;5146483;27;40826;-77
2021/10/02 09:57:50;;;;;;;0.80;0.80;;;;;;;24.26;38.74;98844.53;5149987;27;42879;-78
2021/10/02 10:00:20;;;;;;;1.33;1.00;;;;;;;24.39;39.03;98828.50;5131228;27;41537;-78
2021/10/02 10:02:47;;;;;;;1.20;0.80;;;;;;;24.27;38.67;98824.56;5151578;27;38759;-77
2021/10/02 10:05:16;;;;;;;1.10;0.90;;;;;;;24.51;38.17;98840.56;5172101;27;41735;-79
2021/10/02 10:07:53;;;;;;;1.00;0.83;;;;;;;24.59;38.22;98829.66;5173183;27;43039;-80
2021/10/02 10:10:21;;;;;;;1.03;0.93;;;;;;;24.95;37.31;98823.53;5188758;27;43784;-78
2021/10/02 10:12:49;;;;;;;1.00;0.70;;;;;;;25.08;37.30;98826.41;5155167;27;38984;-79
2021/10/02 10:15:29;;;;;;;5.47;3.23;;;;;;;24.89;36.92;98819.66;5172989;27;44339;-78
2021/10/02 10:17:57;;;;;;;1.57;0.90;;;;;;;24.80;36.89;98819.94;5152708;27;42651;-79
2021/10/02 10:20:39;;;;;;;0.90;0.90;;;;;;;25.18;36.64;98808.00;5150324;27;41121;-79
2021/10/02 10:23:07;;;;;;;0.77;0.67;;;;;;;26.68;34.16;98817.78;5150410;27;40890;-79
2021/10/02 10:25:47;;;;;;;0.97;0.90;;;;;;;27.60;32.63;98821.97;5152315;27;42717;-78
2021/10/02 10:28:18;;;;;;;0.70;0.70;;;;;;;27.77;32.03;98828.72;5129463;27;41836;-77
2021/10/02 10:30:48;;;;;;;1.63;1.10;;;;;;;27.74;32.09;98823.69;5147112;27;42135;-77
2021/10/02 10:33:16;;;;;;;0.90;0.90;;;;;;;28.06;32.33;98822.91;5146937;27;40203;-77
2021/10/02 10:35:47;;;;;;;0.80;0.80;;;;;;;28.98;30.51;98821.16;5150847;27;42726;-79
2021/10/02 10:38:17;;;;;;;1.03;0.90;;;;;;;30.35;28.48;98830.50;5148759;27;43357;-77
2021/10/02 10:40:45;;;;;;;1.20;0.60;;;;;;;32.13;26.33;98841.25;5147896;27;42749;-78
2021/10/02 10:43:13;;;;;;;0.90;0.90;;;;;;;33.66;24.42;98848.34;5149208;27;40784;-80
2021/10/02 10:45:41;;;;;;;1.00;0.90;;;;;;;35.02;22.67;98852.66;5149879;27;40722;-77
2021/10/02 10:48:10;;;;;;;1.27;1.00;;;;;;;35.75;21.60;98850.56;5150360;27;41803;-76
2021/10/02 10:50:41;;;;;;;1.10;1.00;;;;;;;35.86;21.43;98858.69;5133860;27;42476;-77
2021/10/02 10:53:10;;;;;;;1.38;1.00;;;;;;;36.29;20.69;98840.38;5129667;27;39319;-79
2021/10/02 10:55:49;;;;;;;1.20;1.10;;;;;;;37.13;20.35;98843.19;5152030;27;41627;-78
2021/10/02 10:58:26;;;;;;;1.35;1.20;;;;;;;37.33;19.55;98857.16;5150199;27;41680;-78
2021/10/02 11:00:54;;;;;;;1.13;1.05;;;;;;;37.16;19.50;98850.13;5133102;27;41497;-77
2021/10/02 11:03:39;;;;;;;0.80;0.80;;;;;;;37.79;19.58;98832.44;5151651;27;40129;-79
2021/10/02 11:06:08;;;;;;;1.30;1.20;;;;;;;38.66;18.29;98850.81;5132142;27;40599;-80
2021/10/02 11:09:00;;;;;;;0.98;0.90;;;;;;;39.15;17.48;98853.78;5148886;27;41678;-80
2021/10/02 11:11:59;;;;;;;1.55;1.10;;;;;;;39.53;17.19;98840.34;5146086;27;43167;-82
2021/10/02 11:15:01;;;;;;;0.90;0.90;;;;;;;39.68;17.29;98842.22;5149505;27;40957;-78
2021/10/02 11:17:45;;;;;;;1.00;1.00;;;;;;;39.39;17.23;98789.38;5151700;27;41916;-79
2021/10/02 11:20:37;;;;;;;3.97;3.42;;;;;;;39.44;17.33;98822.66;5131552;27;43194;-80
2021/10/02 11:24:01;;;;;;;2.00;1.58;;;;;;;39.63;17.59;98809.81;5168622;27;42195;-78
2021/10/02 11:26:40;;;;;;;0.95;0.90;;;;;;;39.10;17.36;98776.22;5133015;27;39053;-80
2021/10/02 11:29:23;;;;;;;1.50;1.40;;;;;;;38.57;18.45;98788.81;5136892;27;41962;-79
2021/10/02 11:31:53;;;;;;;1.05;1.05;;;;;;;38.27;19.38;98773.06;5150997;27;43044;-78
2021/10/02 11:34:23;;;;;;;1.30;1.20;;;;;;;38.43;18.22;98774.69;5150466;27;41436;-78
2021/10/02 11:36:56;;;;;;;1.15;1.10;;;;;;;38.84;17.57;98774.63;5150152;27;39536;-81
2021/10/02 11:39:31;;;;;;;0.88;0.88;;;;;;;38.90;17.20;98775.44;5151300;27;41747;-82
2021/10/02 11:42:10;;;;;;;1.40;0.95;;;;;;;39.52;17.75;98754.69;5151108;27;42785;-81
2021/10/02 11:44:44;;;;;;;0.82;0.82;;;;;;;40.66;16.21;98769.88;5149952;27;41371;-81
2021/10/02 11:47:32;;;;;;;0.80;0.80;;;;;;;41.80;15.43;98747.56;5133061;27;39041;-81
2021/10/02 11:50:31;;;;;;;0.80;0.80;;;;;;;42.59;14.43;98758.78;5150577;27;41771;-80
2021/10/02 11:53:21;;;;;;;1.10;1.10;;;;;;;42.90;14.11;98754.31;5133228;27;41839;-78
2021/10/02 11:55:50;;;;;;;1.15;0.90;;;;;;;42.85;14.25;98734.91;5148320;27;42288;-82
2021/10/02 11:58:21;;;;;;;0.93;0.93;;;;;;;42.88;14.04;98747.41;5149970;27;40661;-81
2021/10/02 12:00:55;;;;;;;0.95;0.95;;;;;;;42.80;14.25;98734.16;5151173;27;42877;-80
2021/10/02 12:03:25;;;;;;;0.70;0.70;;;;;;;42.73;14.16;98733.75;5132661;27;41606;-78
2021/10/02 12:05:53;;;;;;;2.05;1.00;;;;;;;42.41;14.23;98724.31;5150063;27;41628;-78
2021/10/02 12:08:21;;;;;;;1.20;1.10;;;;;;;42.50;14.40;98724.44;5150756;27;41903;-78
2021/10/02 12:10:54;;;;;;;1.15;1.00;;;;;;;42.46;14.47;98709.47;5149644;27;41779;-82
2021/10/02 12:13:26;;;;;;;0.90;0.90;;;;;;;42.11;14.42;98711.75;5132300;27;42666;-83
2021/10/02 12:16:12;;;;;;;0.85;0.80;;;;;;;41.45;14.88;98709.16;5151103;27;42344;-82
2021/10/02 12:18:52;;;;;;;0.93;0.93;;;;;;;41.12;15.52;98711.00;5150519;27;40200;-80
2021/10/02 12:21:43;;;;;;;1.00;0.88;;;;;;;40.59;16.11;98690.81;5149797;27;41043;-81
2021/10/02 12:24:20;;;;;;;1.10;1.10;;;;;;;40.62;15.77;98696.63;5146885;27;42568;-81
2021/10/02 12:27:00;;;;;;;1.13;1.02;;;;;;;40.99;15.46;98692.28;5149074;27;41616;-80
2021/10/02 12:29:32;;;;;;;0.90;0.90;;;;;;;40.76;15.89;98680.09;5150913;27;40053;-81
2021/10/02 12:32:02;;;;;;;1.83;1.08;;;;;;;40.34;16.01;98684.44;5148938;27;40684;-81
2021/10/02 12:34:33;;;;;;;1.25;1.15;;;;;;;39.43;16.92;98672.16;5149722;27;43624;-81
2021/10/02 12:37:05;;;;;;;1.58;1.20;;;;;;;38.62;17.40;98655.94;5150789;27;43245;-79
2021/10/02 12:39:40;;;;;;;0.90;0.90;;;;;;;38.98;17.35;98641.94;5131127;27;39080;-79
2021/10/02 12:42:11;;;;;;;1.20;1.10;;;;;;;39.92;16.90;98637.13;5148462;27;41899;-80
2021/10/02 12:44:42;;;;;;;1.02;1.00;;;;;;;41.00;15.93;98636.44;5149384;27;41785;-81